createdAt,value
2022-11-30T00:00:03.113Z,5.13
2022-11-30T00:02:40.121Z,3.25
2022-11-30T00:05:09.054Z,2.55
2022-11-30T00:07:38.601Z,4.53
2022-11-30T00:10:09.053Z,3.00
2022-11-30T00:12:37.133Z,3.50
2022-11-30T00:15:05.835Z,2.65
2022-11-30T00:17:33.911Z,2.25
2022-11-30T00:20:01.976Z,4.05
2022-11-30T00:22:29.967Z,1.52
2022-11-30T00:25:00.476Z,1.10
2022-11-30T00:27:29.294Z,5.57
2022-11-30T00:29:57.494Z,3.55
2022-11-30T00:32:26.144Z,4.45
2022-11-30T00:34:54.698Z,3.95
2022-11-30T00:37:23.348Z,2.92
2022-11-30T00:39:51.408Z,2.75
2022-11-30T00:42:20.859Z,3.40
2022-11-30T00:44:49.141Z,2.88
2022-11-30T00:47:17.150Z,9.57
2022-11-30T00:49:45.231Z,2.30
2022-11-30T00:52:13.248Z,1.42
2022-11-30T00:54:41.245Z,4.50
2022-11-30T00:57:09.225Z,2.85
2022-11-30T00:59:38.653Z,1.77
2022-11-30T01:02:06.753Z,4.60
2022-11-30T01:04:34.832Z,6.85
2022-11-30T01:07:02.890Z,7.28
2022-11-30T01:09:30.933Z,4.22
2022-11-30T01:11:58.952Z,1.08
2022-11-30T01:14:27.728Z,2.75
2022-11-30T01:16:57.212Z,2.45
2022-11-30T01:19:25.340Z,0.70
2022-11-30T01:21:53.379Z,3.33
2022-11-30T01:24:21.553Z,5.72
2022-11-30T01:26:49.557Z,3.60
2022-11-30T01:29:17.573Z,1.13
2022-11-30T01:31:45.644Z,2.63
2022-11-30T01:34:15.066Z,1.63
2022-11-30T01:36:43.993Z,2.90
2022-11-30T01:39:12.269Z,2.55
2022-11-30T01:41:40.310Z,6.25
2022-11-30T01:44:54.010Z,3.97
2022-11-30T01:47:27.397Z,3.65
2022-11-30T01:50:02.365Z,3.72
2022-11-30T01:52:34.349Z,2.17
2022-11-30T01:55:11.129Z,3.28
2022-11-30T01:57:42.190Z,2.38
2022-11-30T02:00:13.638Z,2.97
2022-11-30T02:02:49.141Z,1.33
2022-11-30T02:05:19.963Z,4.45
2022-11-30T02:07:48.275Z,2.63
2022-11-30T02:10:18.009Z,1.00
2022-11-30T02:13:14.616Z,3.30
2022-11-30T02:15:51.005Z,3.20
2022-11-30T02:18:25.605Z,1.95
2022-11-30T02:21:08.656Z,3.42
2022-11-30T02:24:03.029Z,4.47
2022-11-30T02:26:55.905Z,2.20
2022-11-30T02:29:27.125Z,1.05
2022-11-30T02:32:01.119Z,3.28
2022-11-30T02:34:31.554Z,6.22
2022-11-30T02:37:01.267Z,0.80
2022-11-30T02:39:29.482Z,3.05
2022-11-30T02:41:57.506Z,3.63
2022-11-30T02:44:27.844Z,6.63
2022-11-30T02:47:06.114Z,3.42
2022-11-30T02:49:42.401Z,2.00
2022-11-30T02:52:12.399Z,2.03
2022-11-30T02:54:40.965Z,1.50
2022-11-30T02:57:09.182Z,2.10
2022-11-30T02:59:38.752Z,1.08
2022-11-30T03:02:07.026Z,3.05
2022-11-30T03:04:35.158Z,2.05
2022-11-30T03:07:03.177Z,1.38
2022-11-30T03:09:31.201Z,0.95
2022-11-30T03:11:59.239Z,5.38
2022-11-30T03:14:27.274Z,4.82
2022-11-30T03:16:56.701Z,2.00
2022-11-30T03:19:24.674Z,0.30
2022-11-30T03:21:52.684Z,2.60
2022-11-30T03:24:20.744Z,2.00
2022-11-30T03:26:48.770Z,0.50
2022-11-30T03:29:17.056Z,1.00
2022-11-30T03:31:45.252Z,2.53
2022-11-30T03:34:14.728Z,2.47
2022-11-30T03:36:42.841Z,2.13
2022-11-30T03:39:11.177Z,2.58
2022-11-30T03:41:39.201Z,2.25
2022-11-30T03:44:07.207Z,1.55
2022-11-30T03:46:35.299Z,1.33
2022-11-30T03:49:03.381Z,0.68
2022-11-30T03:51:32.750Z,2.10
2022-11-30T03:54:00.852Z,2.70
2022-11-30T03:56:28.921Z,1.17
2022-11-30T03:58:57.210Z,2.40
2022-11-30T04:01:25.885Z,0.47
2022-11-30T04:03:54.284Z,3.60
2022-11-30T04:06:23.065Z,2.83
2022-11-30T04:08:52.490Z,2.22
2022-11-30T04:11:20.525Z,0.80
2022-11-30T04:13:48.547Z,2.05
2022-11-30T04:16:16.635Z,1.23
2022-11-30T04:18:44.748Z,2.17
2022-11-30T04:21:12.891Z,0.60
2022-11-30T04:23:41.689Z,2.00
2022-11-30T04:26:14.776Z,2.13
2022-11-30T04:28:43.685Z,1.23
2022-11-30T04:31:12.192Z,3.55
2022-11-30T04:33:40.674Z,2.15
2022-11-30T04:36:14.845Z,2.58
2022-11-30T04:38:42.906Z,1.75
2022-11-30T04:41:12.361Z,1.65
2022-11-30T04:43:40.424Z,0.68
2022-11-30T04:46:08.809Z,1.23
2022-11-30T04:48:36.872Z,1.00
2022-11-30T04:51:06.615Z,1.35
2022-11-30T04:53:35.238Z,2.40
2022-11-30T04:56:07.463Z,4.32
2022-11-30T04:58:38.687Z,3.50
2022-11-30T05:01:06.959Z,5.20
2022-11-30T05:03:35.089Z,16.38
2022-11-30T05:06:03.195Z,2.92
2022-11-30T05:08:31.489Z,1.13
2022-11-30T05:10:59.554Z,1.50
2022-11-30T05:13:27.889Z,1.92
2022-11-30T05:15:57.391Z,9.35
2022-11-30T05:18:26.105Z,3.08
2022-11-30T05:20:54.735Z,1.85
2022-11-30T05:23:23.263Z,1.58
2022-11-30T05:25:51.395Z,1.73
2022-11-30T05:28:19.425Z,1.63
2022-11-30T05:30:47.649Z,1.92
2022-11-30T05:33:17.000Z,1.00
2022-11-30T05:35:45.112Z,2.83
2022-11-30T05:38:13.129Z,3.75
2022-11-30T05:40:41.135Z,3.22
2022-11-30T05:43:09.239Z,2.22
2022-11-30T05:45:37.259Z,2.30
2022-11-30T05:48:05.572Z,2.05
2022-11-30T05:50:35.048Z,5.28
2022-11-30T05:53:03.228Z,1.42
2022-11-30T05:55:32.373Z,3.22
2022-11-30T05:58:00.482Z,3.50
2022-11-30T06:00:28.533Z,1.45
2022-11-30T06:02:58.553Z,5.57
2022-11-30T06:05:27.224Z,2.95
2022-11-30T06:07:56.938Z,5.47
2022-11-30T06:10:27.306Z,2.20
2022-11-30T06:12:55.361Z,2.38
2022-11-30T06:15:23.395Z,1.50
2022-11-30T06:17:51.523Z,2.30
2022-11-30T06:20:19.521Z,6.05
2022-11-30T06:22:47.913Z,3.03
2022-11-30T06:25:17.357Z,2.85
2022-11-30T06:27:45.436Z,4.88
2022-11-30T06:30:14.667Z,5.72
2022-11-30T06:32:45.933Z,3.28
2022-11-30T06:35:14.189Z,4.95
2022-11-30T06:37:42.733Z,1.85
2022-11-30T06:40:12.895Z,1.23
2022-11-30T06:42:42.957Z,3.03
2022-11-30T06:45:11.628Z,4.45
2022-11-30T06:47:39.856Z,2.30
2022-11-30T06:50:09.744Z,6.85
2022-11-30T06:52:37.831Z,4.95
2022-11-30T06:55:06.544Z,5.43
2022-11-30T06:57:34.992Z,4.25
2022-11-30T07:00:06.220Z,1.88
2022-11-30T07:02:34.217Z,2.30
2022-11-30T07:05:02.221Z,65.65
2022-11-30T07:07:30.586Z,74.40
2022-11-30T07:09:58.769Z,69.88
2022-11-30T07:12:27.209Z,81.85
2022-11-30T07:14:56.596Z,77.75
2022-11-30T07:17:25.961Z,69.47
2022-11-30T07:19:54.001Z,81.10
2022-11-30T07:22:22.044Z,75.45
2022-11-30T07:25:07.396Z,78.32
2022-11-30T07:27:35.518Z,80.90
2022-11-30T07:30:03.599Z,78.35
2022-11-30T07:32:32.972Z,81.80
2022-11-30T07:35:01.112Z,82.78
2022-11-30T07:37:29.204Z,88.05
2022-11-30T07:39:57.257Z,106.35
2022-11-30T07:42:25.314Z,97.15
2022-11-30T07:44:58.799Z,101.28
2022-11-30T07:47:27.381Z,97.82
2022-11-30T07:49:57.252Z,90.40
2022-11-30T07:52:25.442Z,108.20
2022-11-30T07:54:53.429Z,102.82
2022-11-30T07:57:21.509Z,93.30
2022-11-30T07:59:49.845Z,105.18
2022-11-30T08:02:18.294Z,102.30
2022-11-30T08:04:46.839Z,98.22
2022-11-30T08:07:16.486Z,95.68
2022-11-30T08:09:45.135Z,104.40
2022-11-30T08:12:13.180Z,105.07
2022-11-30T08:14:56.887Z,97.32
2022-11-30T08:17:29.254Z,104.68
2022-11-30T08:19:57.316Z,104.47
2022-11-30T08:22:26.706Z,109.95
2022-11-30T08:24:54.780Z,112.88
2022-11-30T08:27:22.821Z,118.57
2022-11-30T08:29:50.847Z,110.32
2022-11-30T08:32:19.024Z,107.80
2022-11-30T08:34:48.424Z,99.45
2022-11-30T08:37:16.732Z,114.50
2022-11-30T08:39:46.374Z,111.75
2022-11-30T08:42:14.417Z,108.53
2022-11-30T08:44:42.424Z,122.65
2022-11-30T08:47:10.622Z,132.02
2022-11-30T08:49:38.761Z,118.68
2022-11-30T08:52:22.139Z,118.47
2022-11-30T08:54:51.881Z,111.70
2022-11-30T08:57:22.153Z,116.00
2022-11-30T08:59:50.303Z,113.57
2022-11-30T09:02:20.189Z,117.85
2022-11-30T09:04:51.242Z,122.70
2022-11-30T09:07:19.913Z,109.25
2022-11-30T09:09:48.655Z,104.93
2022-11-30T09:12:18.213Z,111.00
2022-11-30T09:14:50.783Z,117.38
2022-11-30T09:17:20.583Z,118.43
2022-11-30T09:19:48.621Z,115.45
2022-11-30T09:22:16.656Z,136.25
2022-11-30T09:24:45.438Z,140.98
2022-11-30T09:27:13.896Z,141.68
2022-11-30T09:29:43.779Z,136.60
2022-11-30T09:32:11.814Z,155.23
2022-11-30T09:34:39.984Z,153.15
2022-11-30T09:37:08.073Z,147.95
2022-11-30T09:39:36.097Z,154.90
2022-11-30T09:42:31.163Z,154.40
2022-11-30T09:45:07.216Z,159.90
2022-11-30T09:47:59.560Z,152.57
2022-11-30T09:50:31.215Z,156.10
2022-11-30T09:53:04.861Z,155.52
2022-11-30T09:55:39.255Z,165.55
2022-11-30T09:58:08.512Z,167.65
2022-11-30T10:00:38.008Z,154.23
2022-11-30T10:03:07.712Z,164.90
2022-11-30T10:05:46.293Z,172.70
2022-11-30T10:08:27.181Z,165.20
2022-11-30T10:11:04.254Z,161.55
2022-11-30T10:13:50.137Z,163.55
2022-11-30T10:16:28.033Z,169.15
2022-11-30T10:19:06.304Z,148.18
2022-11-30T10:21:47.434Z,140.73
2022-11-30T10:24:27.677Z,141.38
2022-11-30T10:26:57.773Z,162.80
2022-11-30T10:29:31.645Z,163.27
2022-11-30T10:32:06.946Z,160.35
2022-11-30T10:34:37.250Z,147.43
2022-11-30T10:37:12.957Z,154.02
2022-11-30T10:39:48.588Z,168.23
2022-11-30T10:42:22.585Z,158.75
2022-11-30T10:45:01.094Z,158.30
2022-11-30T10:47:36.906Z,150.07
2022-11-30T10:50:06.719Z,141.02
2022-11-30T10:52:42.837Z,169.88
2022-11-30T10:55:15.900Z,152.98
2022-11-30T10:57:44.689Z,146.02
2022-11-30T11:00:14.778Z,161.80
2022-11-30T11:02:46.342Z,147.25
2022-11-30T11:05:18.384Z,145.48
2022-11-30T11:07:52.604Z,158.38
2022-11-30T11:10:23.000Z,151.00
2022-11-30T11:12:52.801Z,153.50
2022-11-30T11:15:23.277Z,153.98
2022-11-30T11:17:54.241Z,133.85
2022-11-30T11:20:34.407Z,147.35
2022-11-30T11:23:04.013Z,135.30
2022-11-30T11:25:35.388Z,157.45
2022-11-30T11:28:09.666Z,138.25
2022-11-30T11:30:38.712Z,128.75
2022-11-30T11:33:21.939Z,134.98
2022-11-30T11:35:51.198Z,127.50
2022-11-30T11:38:27.307Z,127.68
2022-11-30T11:40:57.703Z,120.22
2022-11-30T11:43:27.941Z,128.70
2022-11-30T11:45:59.022Z,122.90
2022-11-30T11:48:36.132Z,125.70
2022-11-30T11:51:07.824Z,118.43
2022-11-30T11:53:47.581Z,113.82
2022-11-30T11:56:25.089Z,119.13
2022-11-30T11:58:58.877Z,113.50
2022-11-30T12:01:48.885Z,114.18
2022-11-30T12:04:50.743Z,108.15
2022-11-30T12:07:25.155Z,109.70
2022-11-30T12:10:28.221Z,132.88
2022-11-30T12:12:56.077Z,117.55
2022-11-30T12:15:31.467Z,116.65
2022-11-30T12:18:14.215Z,115.93
2022-11-30T12:20:54.801Z,115.97
2022-11-30T12:23:42.071Z,118.60
2022-11-30T12:26:17.197Z,127.75
2022-11-30T12:29:04.705Z,103.70
2022-11-30T12:31:42.427Z,112.40
2022-11-30T12:34:19.947Z,115.47
2022-11-30T12:36:57.852Z,105.70
2022-11-30T12:39:33.825Z,115.20
2022-11-30T12:42:08.619Z,112.40
2022-11-30T12:44:45.812Z,119.30
2022-11-30T12:47:29.142Z,101.85
2022-11-30T12:50:17.537Z,108.75
2022-11-30T12:52:58.918Z,96.43
2022-11-30T12:55:35.453Z,104.63
2022-11-30T12:58:13.346Z,116.65
2022-11-30T13:00:53.354Z,108.05
2022-11-30T13:03:53.784Z,107.47
2022-11-30T13:06:25.952Z,112.18
2022-11-30T13:09:02.088Z,106.65
2022-11-30T13:11:37.480Z,98.60
2022-11-30T13:14:15.216Z,97.00
2022-11-30T13:16:44.441Z,101.55
2022-11-30T13:19:26.821Z,104.68
2022-11-30T13:21:59.997Z,107.50
2022-11-30T13:24:37.054Z,103.00
2022-11-30T13:27:15.086Z,97.03
2022-11-30T13:30:03.080Z,105.97
2022-11-30T13:32:57.341Z,101.53
2022-11-30T13:35:42.620Z,93.13
2022-11-30T13:38:36.392Z,107.53
2022-11-30T13:41:08.929Z,93.32
2022-11-30T13:43:42.767Z,96.20
2022-11-30T13:46:17.615Z,91.95
2022-11-30T13:48:46.628Z,96.28
2022-11-30T13:51:34.419Z,94.50
2022-11-30T13:54:36.053Z,106.15
2022-11-30T13:57:16.132Z,105.07
2022-11-30T13:59:48.745Z,99.07
2022-11-30T14:05:46.694Z,110.75
2022-11-30T14:08:40.504Z,105.85
2022-11-30T14:11:37.542Z,103.28
2022-11-30T14:14:46.213Z,107.47
2022-11-30T14:17:24.279Z,93.10
2022-11-30T14:19:54.963Z,95.80
2022-11-30T14:22:23.872Z,102.82
2022-11-30T14:24:52.056Z,104.28
2022-11-30T14:27:23.541Z,93.47
2022-11-30T14:29:58.015Z,98.15
2022-11-30T14:32:37.923Z,93.13
2022-11-30T14:35:12.737Z,98.00
2022-11-30T14:37:52.625Z,97.93
2022-11-30T14:40:23.028Z,102.70
2022-11-30T14:42:54.335Z,97.97
2022-11-30T14:45:27.688Z,103.28
2022-11-30T14:48:06.668Z,99.70
2022-11-30T14:50:36.110Z,103.63
2022-11-30T14:53:20.804Z,104.85
2022-11-30T14:55:53.328Z,103.50
2022-11-30T14:58:27.485Z,104.80
2022-11-30T15:00:57.569Z,102.25
2022-11-30T15:03:28.442Z,102.90
2022-11-30T15:05:58.740Z,105.85
2022-11-30T15:08:33.977Z,92.70
2022-11-30T15:11:05.828Z,98.38
2022-11-30T15:13:34.589Z,94.47
2022-11-30T15:16:10.073Z,94.22
2022-11-30T15:18:40.433Z,89.47
2022-11-30T15:21:15.509Z,94.88
2022-11-30T15:23:47.975Z,91.85
2022-11-30T15:26:23.793Z,92.32
2022-11-30T15:28:57.521Z,89.72
2022-11-30T15:31:29.972Z,93.18
2022-11-30T15:33:58.273Z,93.85
2022-11-30T15:36:34.408Z,92.50
2022-11-30T15:39:04.484Z,87.80
2022-11-30T15:41:34.230Z,96.38
2022-11-30T15:44:03.242Z,92.72
2022-11-30T15:46:35.029Z,84.07
2022-11-30T15:49:17.353Z,84.10
2022-11-30T15:51:53.216Z,90.15
2022-11-30T15:54:44.016Z,94.78
2022-11-30T15:57:12.645Z,95.20
2022-11-30T15:59:40.749Z,85.38
2022-11-30T16:02:26.629Z,98.03
2022-11-30T16:05:24.850Z,93.78
2022-11-30T16:07:55.404Z,85.60
2022-11-30T16:10:25.730Z,94.18
2022-11-30T16:12:55.807Z,87.90
2022-11-30T16:15:26.112Z,92.78
2022-11-30T16:17:59.683Z,81.15
2022-11-30T16:20:27.918Z,95.30
2022-11-30T16:22:57.171Z,83.47
2022-11-30T16:25:27.973Z,88.15
2022-11-30T16:27:56.074Z,84.22
2022-11-30T16:30:25.076Z,92.30
2022-11-30T16:32:53.080Z,94.38
2022-11-30T16:35:24.888Z,75.53
2022-11-30T16:37:53.111Z,82.85
2022-11-30T16:40:21.435Z,81.47
2022-11-30T16:42:50.776Z,84.00
2022-11-30T16:45:21.609Z,85.68
2022-11-30T16:47:49.671Z,85.72
2022-11-30T16:50:18.209Z,92.28
2022-11-30T16:52:47.796Z,91.28
2022-11-30T16:55:17.742Z,84.22
2022-11-30T16:57:45.853Z,83.45
2022-11-30T17:00:16.886Z,83.90
2022-11-30T17:02:56.069Z,84.47
2022-11-30T17:05:24.621Z,87.22
2022-11-30T17:07:54.546Z,88.03
2022-11-30T17:10:23.033Z,88.25
2022-11-30T17:12:51.151Z,88.07
2022-11-30T17:15:21.595Z,82.43
2022-11-30T17:17:49.831Z,86.65
2022-11-30T17:20:18.799Z,87.82
2022-11-30T17:22:47.030Z,94.35
2022-11-30T17:25:19.538Z,90.72
2022-11-30T17:27:48.601Z,94.07
2022-11-30T17:30:19.084Z,94.63
2022-11-30T17:32:47.468Z,98.43
2022-11-30T17:35:15.657Z,89.82
2022-11-30T17:37:43.714Z,92.60
2022-11-30T17:40:14.818Z,95.93
2022-11-30T17:42:44.659Z,96.43
2022-11-30T17:45:12.883Z,102.15
2022-11-30T17:47:40.960Z,91.47
2022-11-30T17:50:10.301Z,100.70
2022-11-30T17:52:38.321Z,97.75
2022-11-30T17:55:07.350Z,91.80
2022-11-30T17:57:37.308Z,105.18
2022-11-30T18:00:08.806Z,100.97
2022-11-30T18:02:36.916Z,102.57
2022-11-30T18:05:05.188Z,98.50
2022-11-30T18:07:33.342Z,98.88
2022-11-30T18:10:01.828Z,97.85
2022-11-30T18:12:29.848Z,100.05
2022-11-30T18:14:57.888Z,100.38
2022-11-30T18:17:27.322Z,107.80
2022-11-30T18:19:55.394Z,97.72
2022-11-30T18:22:23.429Z,97.20
2022-11-30T18:24:51.792Z,97.18
2022-11-30T18:27:19.775Z,96.53
2022-11-30T18:29:47.903Z,99.97
2022-11-30T18:32:15.965Z,96.75
2022-11-30T18:34:49.280Z,96.82
2022-11-30T18:37:17.690Z,103.65
2022-11-30T18:39:45.795Z,93.90
2022-11-30T18:42:13.861Z,95.72
2022-11-30T18:44:41.894Z,94.40
2022-11-30T18:47:10.089Z,95.90
2022-11-30T18:49:38.209Z,98.32
2022-11-30T18:52:07.675Z,88.60
2022-11-30T18:54:36.300Z,83.65
2022-11-30T18:57:04.352Z,87.43
2022-11-30T18:59:32.392Z,90.15
2022-11-30T19:02:00.529Z,88.97
2022-11-30T19:04:28.618Z,84.63
2022-11-30T19:06:56.699Z,95.57
2022-11-30T19:09:26.124Z,103.70
2022-11-30T19:11:54.157Z,97.78
2022-11-30T19:14:22.209Z,98.05
2022-11-30T19:16:50.308Z,96.63
2022-11-30T19:19:18.420Z,94.72
2022-11-30T19:21:47.957Z,94.82
2022-11-30T19:24:16.364Z,98.95
2022-11-30T19:26:45.769Z,95.15
2022-11-30T19:29:14.008Z,94.22
2022-11-30T19:31:42.108Z,96.30
2022-11-30T19:34:12.926Z,98.35
2022-11-30T19:36:41.562Z,98.22
2022-11-30T19:39:10.920Z,98.07
2022-11-30T19:41:39.812Z,95.07
2022-11-30T19:44:14.610Z,99.88
2022-11-30T19:46:43.028Z,97.85
2022-11-30T19:49:11.901Z,93.70
2022-11-30T19:51:40.004Z,93.63
2022-11-30T19:54:08.049Z,98.13
2022-11-30T19:56:37.273Z,96.97
2022-11-30T19:59:06.290Z,106.38
2022-11-30T20:01:36.426Z,108.30
2022-11-30T20:04:05.427Z,101.57
2022-11-30T20:06:36.804Z,105.13
2022-11-30T20:09:05.615Z,102.80
2022-11-30T20:11:34.050Z,103.32
2022-11-30T20:14:02.208Z,105.32
2022-11-30T20:16:30.559Z,102.32
2022-11-30T20:19:01.781Z,108.93
2022-11-30T20:21:32.160Z,106.40
2022-11-30T20:24:01.895Z,111.75
2022-11-30T20:26:32.516Z,104.97
2022-11-30T20:29:02.306Z,114.97
2022-11-30T20:31:35.695Z,109.13
2022-11-30T20:34:05.508Z,104.90
2022-11-30T20:36:33.589Z,106.93
2022-11-30T20:39:02.937Z,98.55
2022-11-30T20:41:31.007Z,105.25
2022-11-30T20:43:59.147Z,111.07
2022-11-30T20:46:28.726Z,107.18
2022-11-30T20:48:57.693Z,105.38
2022-11-30T20:51:31.850Z,114.80
2022-11-30T20:54:01.780Z,105.57
2022-11-30T20:56:29.863Z,110.47
2022-11-30T20:59:01.465Z,107.22
2022-11-30T21:01:29.755Z,109.03
2022-11-30T21:03:59.564Z,101.15
2022-11-30T21:06:29.527Z,106.18
2022-11-30T21:08:58.206Z,111.40
2022-11-30T21:11:27.496Z,105.95
2022-11-30T21:13:56.277Z,103.47
2022-11-30T21:16:28.619Z,111.97
2022-11-30T21:18:58.172Z,119.22
2022-11-30T21:21:30.482Z,119.95
2022-11-30T21:24:00.406Z,106.85
2022-11-30T21:26:30.353Z,112.50
2022-11-30T21:29:01.968Z,108.97
2022-11-30T21:31:30.801Z,111.82
2022-11-30T21:33:59.209Z,117.70
2022-11-30T21:36:29.195Z,110.05
2022-11-30T21:39:05.004Z,113.65
2022-11-30T21:41:34.584Z,107.53
2022-11-30T21:44:02.952Z,110.90
2022-11-30T21:46:31.701Z,108.85
2022-11-30T21:48:59.966Z,106.18
2022-11-30T21:51:31.720Z,102.15
2022-11-30T21:54:01.745Z,121.53
2022-11-30T21:56:32.392Z,109.53
2022-11-30T21:59:01.071Z,110.88
2022-11-30T22:01:31.240Z,113.95
2022-11-30T22:04:00.362Z,113.65
2022-11-30T22:06:31.353Z,118.45
2022-11-30T22:09:03.242Z,107.72
2022-11-30T22:11:32.349Z,124.60
2022-11-30T22:14:00.663Z,119.75
2022-11-30T22:16:35.651Z,132.43
2022-11-30T22:19:05.176Z,116.72
2022-11-30T22:21:35.521Z,116.72
2022-11-30T22:24:05.964Z,129.27
2022-11-30T22:26:35.637Z,138.07
2022-11-30T22:29:07.324Z,133.05
2022-11-30T22:31:37.657Z,122.18
2022-11-30T22:34:06.692Z,131.25
2022-11-30T22:36:38.324Z,142.50
2022-11-30T22:39:09.467Z,142.20
2022-11-30T22:41:38.441Z,154.27
2022-11-30T22:44:06.616Z,142.27
2022-11-30T22:46:36.325Z,142.93
2022-11-30T22:49:07.278Z,159.40
2022-11-30T22:51:37.752Z,146.77
2022-11-30T22:54:07.181Z,142.13
2022-11-30T22:56:37.388Z,145.55
2022-11-30T22:59:06.672Z,139.75
2022-11-30T23:01:36.311Z,150.10
2022-11-30T23:04:06.374Z,148.48
2022-11-30T23:06:37.367Z,135.77
2022-11-30T23:09:12.039Z,146.88
2022-11-30T23:11:40.395Z,150.23
2022-11-30T23:14:09.042Z,137.98
2022-11-30T23:16:37.806Z,139.80
2022-11-30T23:19:06.842Z,139.70
2022-11-30T23:21:41.396Z,138.02
2022-11-30T23:24:13.748Z,141.25
2022-11-30T23:26:42.900Z,135.10
2022-11-30T23:29:13.914Z,133.45
2022-11-30T23:31:44.013Z,127.15
2022-11-30T23:34:13.849Z,133.23
2022-11-30T23:36:43.421Z,125.63
2022-11-30T23:39:13.825Z,119.70
2022-11-30T23:41:42.077Z,121.35
2022-11-30T23:44:10.586Z,115.78
2022-11-30T23:46:38.703Z,112.95
2022-11-30T23:49:07.111Z,107.50
2022-11-30T23:51:35.166Z,108.28
2022-11-30T23:54:05.206Z,110.32
2022-11-30T23:56:33.345Z,111.15
2022-11-30T23:59:01.363Z,105.78
